Time;durP1;ratioP1;P1;durP2;ratioP2;P2;SDS_P1;SDS_P2;PMS_P1;PMS_P2;Temp;Humidity;BMP_temperature;BMP_pressure;BME280_temperature;BME280_humidity;BME280_pressure;Samples;Min_cycle;Max_cycle;Signal;HPM_P1;HPM_P2
2023/06/15 00:02:20;;;;;;;10.60;7.50;;;;;;;20.78;62.42;100393.39;105551;1255;60530;-61
2023/06/15 00:04:47;;;;;;;11.80;8.10;;;;;;;20.79;62.28;100389.25;105536;1254;67303;-59
2023/06/15 00:07:15;;;;;;;16.00;7.80;;;;;;;20.78;62.05;100386.52;105644;1251;60477;-59
2023/06/15 00:09:43;;;;;;;13.60;8.20;;;;;;;20.78;61.79;100383.88;105647;1255;60418;-60
2023/06/15 00:12:10;;;;;;;13.00;8.80;;;;;;;20.79;61.75;100387.64;106541;1251;63633;-61
2023/06/15 00:14:38;;;;;;;13.80;8.10;;;;;;;20.77;61.83;100390.50;105519;1251;61330;-61
2023/06/15 00:17:08;;;;;;;10.00;7.50;;;;;;;20.73;62.03;100391.57;105560;1252;63704;-61
2023/06/15 00:19:36;;;;;;;15.60;8.30;;;;;;;20.66;62.31;100390.70;105455;1253;61059;-61
2023/06/15 00:22:55;;;;;;;11.50;7.90;;;;;;;20.39;63.34;100388.68;102313;1292;600920;-61
2023/06/15 00:25:23;;;;;;;10.00;7.60;;;;;;;20.57;62.76;100393.50;104410;1267;59171;-62
2023/06/15 00:27:50;;;;;;;9.60;7.30;;;;;;;20.59;62.76;100389.09;104527;1267;59397;-61
2023/06/15 00:30:20;;;;;;;15.50;8.10;;;;;;;20.57;62.89;100388.07;104668;1269;63588;-62
2023/06/15 00:32:48;;;;;;;12.80;8.20;;;;;;;20.55;63.04;100393.61;104443;1270;60086;-60
2023/06/15 00:35:15;;;;;;;15.50;8.60;;;;;;;20.53;63.32;100389.71;104613;1270;183320;-61
2023/06/15 00:37:44;;;;;;;13.10;8.60;;;;;;;20.51;63.47;100389.98;104717;1267;59596;-59
2023/06/15 00:40:12;;;;;;;12.30;8.10;;;;;;;20.47;63.53;100388.89;104935;1267;59368;-60
2023/06/15 00:42:39;;;;;;;12.70;7.80;;;;;;;20.46;63.73;100388.96;105940;1264;62069;-61
2023/06/15 00:45:08;;;;;;;11.30;7.80;;;;;;;20.47;63.64;100389.93;104445;1264;61497;-62
2023/06/15 00:47:38;;;;;;;13.30;8.90;;;;;;;20.45;63.63;100387.27;104668;1267;62430;-62
2023/06/15 00:50:10;;;;;;;13.70;8.50;;;;;;;20.43;63.56;100386.14;104546;1270;59652;-61
2023/06/15 00:52:38;;;;;;;12.10;8.40;;;;;;;20.35;63.34;100383.20;104817;1264;59623;-64
2023/06/15 00:55:06;;;;;;;13.20;9.40;;;;;;;20.26;63.23;100386.34;104555;1264;65054;-62
2023/06/15 00:57:34;;;;;;;11.90;8.60;;;;;;;20.18;63.33;100385.71;104521;1264;61377;-61
2023/06/15 01:00:09;;;;;;;11.60;8.50;;;;;;;20.13;63.53;100386.17;104559;1268;63743;-60
2023/06/15 01:02:38;;;;;;;12.40;7.90;;;;;;;20.13;63.55;100383.53;104659;1264;59824;-61
2023/06/15 01:05:06;;;;;;;10.50;7.90;;;;;;;20.16;63.63;100385.27;104859;1263;59720;-59
2023/06/15 01:07:35;;;;;;;13.90;8.50;;;;;;;20.20;63.65;100387.99;104759;1264;62907;-62
2023/06/15 01:10:03;;;;;;;15.00;9.90;;;;;;;20.20;63.68;100388.66;104810;1264;61527;-62
2023/06/15 01:12:30;;;;;;;12.10;9.80;;;;;;;20.22;63.53;100389.67;104624;1267;63918;-60
2023/06/15 01:14:58;;;;;;;15.60;10.40;;;;;;;20.22;63.43;100386.67;104683;1267;59829;-63
2023/06/15 01:17:25;;;;;;;11.90;9.70;;;;;;;20.19;63.30;100382.96;104740;1269;59791;-62
2023/06/15 01:19:57;;;;;;;15.90;9.30;;;;;;;20.18;63.25;100386.11;104769;1269;64144;-60
2023/06/15 01:22:49;;;;;;;13.60;9.90;;;;;;;20.16;63.41;100386.34;104700;1264;61479;-59
2023/06/15 01:25:29;;;;;;;11.60;9.60;;;;;;;20.10;63.57;100391.85;104795;1269;72727;-61
2023/06/15 01:28:01;;;;;;;13.80;9.90;;;;;;;20.05;63.82;100391.01;104847;1264;59729;-62
2023/06/15 01:30:36;;;;;;;14.70;10.20;;;;;;;20.00;63.96;100391.11;104789;1263;59634;-64
2023/06/15 01:33:04;;;;;;;14.20;9.50;;;;;;;19.98;64.16;100386.95;104457;1264;62913;-62
2023/06/15 01:35:31;;;;;;;13.70;9.40;;;;;;;19.97;64.14;100387.95;104739;1264;61965;-60
2023/06/15 01:37:59;;;;;;;15.50;10.60;;;;;;;19.96;64.15;100387.01;104635;1262;64224;-61
2023/06/15 01:40:27;;;;;;;14.00;9.30;;;;;;;19.95;64.11;100385.28;104527;1263;59643;-61
2023/06/15 01:42:56;;;;;;;13.90;10.30;;;;;;;19.94;64.04;100385.50;104873;1269;60048;-61
2023/06/15 01:45:25;;;;;;;14.20;9.30;;;;;;;19.91;64.21;100381.85;104810;1266;64156;-61
2023/06/15 01:47:53;;;;;;;12.70;8.80;;;;;;;19.89;64.36;100379.11;104831;1264;60117;-61
2023/06/15 01:50:21;;;;;;;18.20;9.80;;;;;;;19.90;64.44;100381.37;104562;1264;62463;-61
2023/06/15 01:52:48;;;;;;;13.40;8.70;;;;;;;19.91;64.75;100385.48;104812;1265;59751;-60
2023/06/15 01:55:16;;;;;;;11.90;8.90;;;;;;;19.94;64.82;100385.92;104567;1270;59583;-62
2023/06/15 01:57:45;;;;;;;11.00;9.10;;;;;;;19.96;64.89;100383.74;104704;1263;63048;-61
2023/06/15 02:00:14;;;;;;;12.80;9.40;;;;;;;19.98;64.98;100386.95;104699;1263;61481;-62
2023/06/15 02:02:42;;;;;;;10.80;8.80;;;;;;;19.98;64.97;100384.21;104704;1269;64359;-61
2023/06/15 02:05:10;;;;;;;10.30;8.40;;;;;;;20.03;64.74;100383.63;104871;1265;59749;-61
2023/06/15 02:07:37;;;;;;;10.00;8.30;;;;;;;20.07;64.88;100385.48;104335;1264;59945;-61
2023/06/15 02:10:05;;;;;;;13.40;8.50;;;;;;;20.10;64.85;100382.48;104883;1263;64067;-62
2023/06/15 02:12:33;;;;;;;16.00;9.80;;;;;;;20.13;64.91;100379.27;106052;1270;60259;-62
2023/06/15 02:15:02;;;;;;;14.20;9.30;;;;;;;20.14;64.93;100376.64;104772;1265;63793;-61
2023/06/15 02:17:38;;;;;;;14.40;9.00;;;;;;;20.14;65.01;100374.98;104612;1267;59823;-62
2023/06/15 02:20:09;;;;;;;11.60;8.60;;;;;;;20.18;64.96;100375.23;104899;1263;59744;-62
2023/06/15 02:22:38;;;;;;;13.90;8.90;;;;;;;20.23;64.89;100375.21;104786;1269;64590;-60
2023/06/15 02:25:07;;;;;;;14.50;8.40;;;;;;;20.27;64.93;100376.56;104844;1264;61551;-61
2023/06/15 02:27:35;;;;;;;13.60;8.90;;;;;;;20.27;64.93;100374.35;104963;1269;62468;-61
2023/06/15 02:30:03;;;;;;;11.70;9.20;;;;;;;20.25;64.93;100377.08;104602;1264;59752;-62
2023/06/15 02:32:31;;;;;;;13.20;10.00;;;;;;;20.21;65.01;100372.88;104954;1263;59753;-61
2023/06/15 02:35:00;;;;;;;13.30;8.10;;;;;;;20.21;65.17;100373.04;104760;1264;64189;-60
2023/06/15 02:37:27;;;;;;;13.80;7.80;;;;;;;20.23;65.41;100376.02;104824;1267;60143;-62
2023/06/15 02:39:55;;;;;;;13.80;9.00;;;;;;;20.23;65.56;100375.34;104562;1264;63704;-62
2023/06/15 02:42:23;;;;;;;13.20;8.90;;;;;;;20.24;65.62;100373.98;104694;1266;59699;-61
2023/06/15 02:44:51;;;;;;;13.30;7.70;;;;;;;20.27;65.84;100374.30;105161;1266;59574;-62
2023/06/15 02:47:19;;;;;;;12.30;9.00;;;;;;;20.31;65.79;100373.65;104752;1263;64619;-61
2023/06/15 02:49:47;;;;;;;13.90;8.00;;;;;;;20.35;65.80;100372.14;104699;1264;60274;-60
2023/06/15 02:52:15;;;;;;;12.40;7.90;;;;;;;20.42;65.83;100370.09;104952;1264;62503;-62
2023/06/15 02:54:43;;;;;;;13.60;8.10;;;;;;;20.48;65.74;100368.42;104764;1266;59765;-61
2023/06/15 02:57:11;;;;;;;11.20;7.90;;;;;;;20.53;65.78;100368.49;104585;1262;59669;-63
2023/06/15 02:59:50;;;;;;;14.40;7.90;;;;;;;20.58;65.89;100366.48;104552;1264;64121;-63
2023/06/15 03:02:23;;;;;;;11.90;7.90;;;;;;;20.61;65.82;100365.75;104624;1263;61363;-63
2023/06/15 03:04:51;;;;;;;18.00;8.50;;;;;;;20.64;65.77;100366.70;104836;1263;62486;-63
2023/06/15 03:07:25;;;;;;;13.90;8.00;;;;;;;20.68;65.60;100369.26;104899;1260;59733;-63
2023/06/15 03:10:08;;;;;;;11.60;6.50;;;;;;;20.73;65.55;100365.70;104907;1265;59673;-62
2023/06/15 03:12:39;;;;;;;11.90;7.40;;;;;;;20.78;65.59;100364.79;104854;1260;62887;-63
2023/06/15 03:15:08;;;;;;;9.70;8.00;;;;;;;20.80;65.31;100361.40;104909;1261;60269;-63
2023/06/15 03:17:39;;;;;;;14.50;8.60;;;;;;;20.84;65.36;100363.00;104863;1263;63704;-63
2023/06/15 03:20:10;;;;;;;8.80;6.50;;;;;;;20.85;65.35;100364.59;104992;1265;59717;-61
2023/06/15 03:22:39;;;;;;;9.10;6.80;;;;;;;20.89;65.41;100365.90;104962;1261;59730;-62
2023/06/15 03:25:10;;;;;;;12.20;7.00;;;;;;;20.92;65.39;100370.08;104948;1265;64203;-62
2023/06/15 03:27:40;;;;;;;11.70;7.90;;;;;;;20.98;65.28;100369.68;104723;1260;61411;-61
2023/06/15 03:30:12;;;;;;;16.30;8.00;;;;;;;21.03;65.01;100371.99;105654;1263;62609;-62
2023/06/15 03:32:41;;;;;;;12.80;8.30;;;;;;;21.05;64.82;100369.34;104992;1259;59923;-63
2023/06/15 03:35:12;;;;;;;12.10;7.10;;;;;;;21.06;64.70;100370.78;105004;1265;59589;-61
2023/06/15 03:37:40;;;;;;;11.60;7.30;;;;;;;21.10;64.48;100368.85;104915;1260;64080;-60
2023/06/15 03:40:08;;;;;;;11.80;7.90;;;;;;;21.13;64.34;100370.90;104929;1260;60178;-61
2023/06/15 03:42:36;;;;;;;12.00;7.60;;;;;;;21.18;64.33;100373.02;105220;1261;63722;-62
2023/06/15 03:45:06;;;;;;;12.70;8.20;;;;;;;21.20;64.35;100372.38;105038;1261;59790;-62
2023/06/15 03:47:34;;;;;;;14.90;7.80;;;;;;;21.22;64.23;100372.69;105044;1260;59700;-62
2023/06/15 03:50:01;;;;;;;10.40;7.70;;;;;;;21.24;63.94;100371.92;104723;1260;62937;-61
2023/06/15 03:52:32;;;;;;;14.30;7.20;;;;;;;21.28;63.99;100366.73;104921;1263;61875;-62
2023/06/15 03:55:00;;;;;;;12.10;7.10;;;;;;;21.35;63.60;100366.09;104967;1267;62440;-62
2023/06/15 03:57:29;;;;;;;17.60;8.60;;;;;;;21.40;63.53;100364.70;104855;1261;59854;-61
2023/06/15 03:59:57;;;;;;;11.40;7.70;;;;;;;21.44;63.34;100362.73;104857;1266;61131;-62
2023/06/15 04:02:24;;;;;;;11.10;7.30;;;;;;;21.47;63.10;100362.38;105109;1257;62926;-63
2023/06/15 04:04:52;;;;;;;13.50;7.80;;;;;;;21.51;62.94;100363.19;105220;1260;60295;-64
2023/06/15 04:07:20;;;;;;;13.10;8.00;;;;;;;21.52;62.79;100367.27;105089;1261;62584;-63
2023/06/15 04:09:49;;;;;;;10.40;6.70;;;;;;;21.58;62.71;100368.02;105410;1257;59791;-63
2023/06/15 04:12:16;;;;;;;11.60;7.20;;;;;;;21.65;62.50;100366.71;106128;1257;59714;-63
2023/06/15 04:14:44;;;;;;;11.90;8.30;;;;;;;21.72;62.32;100367.41;105368;1251;62839;-63
2023/06/15 04:17:16;;;;;;;13.70;8.60;;;;;;;21.78;62.18;100367.23;105658;1252;60353;-61
2023/06/15 04:19:45;;;;;;;13.10;8.50;;;;;;;21.82;61.91;100368.86;105348;1254;64361;-63
2023/06/15 04:22:12;;;;;;;11.60;8.50;;;;;;;21.83;61.67;100368.05;105456;1254;59727;-63
2023/06/15 04:24:40;;;;;;;10.50;7.40;;;;;;;21.82;61.39;100364.24;105541;1258;59545;-63
2023/06/15 04:27:12;;;;;;;12.70;7.20;;;;;;;21.82;61.50;100365.78;105507;1257;64128;-65
2023/06/15 04:29:45;;;;;;;13.80;8.30;;;;;;;21.85;61.64;100368.35;105421;1259;60204;-65
2023/06/15 04:32:17;;;;;;;10.70;7.20;;;;;;;21.89;61.71;100366.02;105435;1251;64654;-63
2023/06/15 04:34:45;;;;;;;13.00;8.00;;;;;;;21.92;61.28;100366.13;107522;1251;60531;-63
2023/06/15 04:37:16;;;;;;;9.40;7.10;;;;;;;21.93;61.00;100368.76;105456;1250;60716;-62
2023/06/15 04:39:45;;;;;;;14.60;8.70;;;;;;;21.94;61.10;100370.95;105395;1251;65052;-64
2023/06/15 04:42:13;;;;;;;15.50;8.40;;;;;;;21.94;60.82;100370.34;105538;1257;61561;-65
2023/06/15 04:44:41;;;;;;;15.60;7.50;;;;;;;21.96;60.63;100371.46;105590;1254;62493;-62
2023/06/15 04:47:09;;;;;;;15.30;8.20;;;;;;;21.98;60.52;100371.68;105395;1257;60405;-64
2023/06/15 04:49:37;;;;;;;11.40;7.90;;;;;;;21.96;60.61;100372.54;105538;1257;60399;-64
2023/06/15 04:52:05;;;;;;;13.60;9.20;;;;;;;21.94;60.66;100373.88;106769;1251;63774;-65
2023/06/15 04:54:37;;;;;;;14.60;8.70;;;;;;;21.93;60.55;100372.60;106111;1251;61476;-64
2023/06/15 04:57:05;;;;;;;11.20;8.40;;;;;;;21.94;60.61;100371.04;105393;1257;63759;-64
2023/06/15 04:59:33;;;;;;;12.90;7.70;;;;;;;21.99;60.44;100369.54;105593;1251;60504;-66
2023/06/15 05:02:01;;;;;;;12.20;7.50;;;;;;;22.04;60.55;100371.04;105584;1254;60496;-64
2023/06/15 05:04:31;;;;;;;12.10;9.10;;;;;;;22.10;60.11;100376.55;105529;1251;64842;-63
2023/06/15 05:07:00;;;;;;;12.20;8.10;;;;;;;22.15;59.65;100378.03;105812;1251;61537;-64
2023/06/15 05:09:29;;;;;;;11.30;8.80;;;;;;;22.19;59.89;100377.29;105657;1257;63691;-63
2023/06/15 05:11:57;;;;;;;12.70;7.90;;;;;;;22.24;59.80;100379.67;105521;1254;60430;-64
2023/06/15 05:14:26;;;;;;;12.70;8.30;;;;;;;22.31;59.45;100380.14;105508;1257;61068;-65
2023/06/15 05:16:54;;;;;;;14.00;8.40;;;;;;;22.39;59.02;100380.84;105573;1251;64960;-64
2023/06/15 05:19:22;;;;;;;10.50;8.30;;;;;;;22.44;58.43;100379.66;105547;1258;62231;-65
2023/06/15 05:21:50;;;;;;;13.20;8.40;;;;;;;22.50;58.08;100382.80;105392;1257;66357;-66
2023/06/15 05:24:18;;;;;;;13.00;7.80;;;;;;;22.55;57.82;100379.81;105470;1253;60552;-66
2023/06/15 05:26:45;;;;;;;14.40;8.30;;;;;;;22.59;57.57;100378.19;106195;1257;60347;-60
2023/06/15 05:29:13;;;;;;;12.10;7.60;;;;;;;22.63;56.87;100380.66;105310;1254;63648;-60
2023/06/15 05:31:40;;;;;;;14.00;7.50;;;;;;;22.67;56.85;100382.02;105368;1257;60590;-60
2023/06/15 05:34:08;;;;;;;10.20;6.90;;;;;;;22.70;56.80;100382.16;105227;1254;63711;-59
2023/06/15 05:36:35;;;;;;;11.70;6.40;;;;;;;22.75;55.92;100381.60;105347;1257;60493;-59
2023/06/15 05:39:25;;;;;;;9.20;6.20;;;;;;;22.82;55.42;100385.34;105316;1256;59625;-59
2023/06/15 05:41:53;;;;;;;13.50;7.30;;;;;;;22.86;55.32;100389.02;105604;1253;64894;-62
2023/06/15 05:44:22;;;;;;;12.90;6.90;;;;;;;22.86;55.25;100390.91;105479;1254;61458;-58
2023/06/15 05:46:50;;;;;;;13.50;6.70;;;;;;;22.86;55.00;100387.20;105264;1254;63709;-59
2023/06/15 05:49:19;;;;;;;13.10;7.10;;;;;;;22.83;54.75;100385.38;105251;1257;62145;-58
2023/06/15 05:51:47;;;;;;;11.10;7.80;;;;;;;22.81;54.64;100388.11;105631;1255;60350;-60
2023/06/15 05:54:15;;;;;;;11.00;7.70;;;;;;;22.79;54.84;100390.41;105391;1254;63693;-60
2023/06/15 05:56:43;;;;;;;13.90;7.30;;;;;;;22.78;54.76;100394.13;105381;1254;61292;-59
2023/06/15 05:59:11;;;;;;;11.20;7.10;;;;;;;22.79;54.63;100396.55;105280;1254;63809;-59
2023/06/15 06:01:57;;;;;;;11.20;6.70;;;;;;;22.85;54.58;100393.92;105081;1254;60476;-58
2023/06/15 06:04:25;;;;;;;14.20;6.30;;;;;;;22.93;54.39;100393.20;105902;1258;60421;-59
2023/06/15 06:06:53;;;;;;;12.80;6.80;;;;;;;23.02;54.25;100393.99;105147;1257;64915;-59
2023/06/15 06:09:20;;;;;;;11.00;7.00;;;;;;;23.10;54.29;100396.95;105253;1257;61026;-60
2023/06/15 06:11:48;;;;;;;10.60;6.20;;;;;;;23.17;54.39;100398.50;105348;1254;63751;-61
2023/06/15 06:14:17;;;;;;;14.00;7.20;;;;;;;23.25;54.21;100399.41;105435;1254;60562;-61
2023/06/15 06:16:44;;;;;;;12.30;6.40;;;;;;;23.32;54.11;100399.73;105240;1254;60505;-59
2023/06/15 06:19:12;;;;;;;15.80;6.80;;;;;;;23.38;53.86;100400.89;105691;1253;67364;-60
2023/06/15 06:21:40;;;;;;;10.70;6.60;;;;;;;23.42;53.18;100397.01;106188;1254;61410;-60
2023/06/15 06:24:08;;;;;;;9.20;6.60;;;;;;;23.42;52.56;100396.80;105143;1254;63872;-60
2023/06/15 06:26:37;;;;;;;15.10;7.30;;;;;;;23.43;52.31;100395.44;105195;1254;60536;-60
2023/06/15 06:29:04;;;;;;;10.90;6.20;;;;;;;23.45;52.61;100395.45;105443;1251;60796;-60
2023/06/15 06:31:32;;;;;;;10.00;6.20;;;;;;;23.49;52.50;100392.89;105283;1252;64977;-59
2023/06/15 06:33:59;;;;;;;10.10;6.80;;;;;;;23.54;52.57;100388.61;105304;1254;61370;-63
2023/06/15 06:36:27;;;;;;;15.60;6.20;;;;;;;23.62;52.04;100387.04;105342;1255;64250;-62
2023/06/15 06:38:55;;;;;;;10.90;6.20;;;;;;;23.68;51.57;100392.33;105324;1257;60518;-58
2023/06/15 06:41:29;;;;;;;10.50;6.20;;;;;;;23.72;51.15;100383.02;105201;1254;59491;-60
2023/06/15 06:43:57;;;;;;;13.00;6.20;;;;;;;23.76;50.82;100380.48;105384;1254;63814;-62
2023/06/15 06:46:24;;;;;;;11.10;6.40;;;;;;;23.81;50.70;100381.45;105629;1254;61911;-61
2023/06/15 06:48:52;;;;;;;11.60;6.70;;;;;;;23.88;50.60;100377.89;105461;1252;63735;-61
2023/06/15 06:51:19;;;;;;;12.30;5.80;;;;;;;23.96;50.70;100377.54;105374;1254;60849;-62
2023/06/15 06:53:47;;;;;;;8.10;5.20;;;;;;;24.03;50.14;100376.35;105467;1254;60418;-59
2023/06/15 06:56:14;;;;;;;8.60;5.90;;;;;;;24.08;49.68;100376.02;105595;1257;64895;-61
2023/06/15 06:58:42;;;;;;;8.30;5.00;;;;;;;24.14;49.74;100377.20;105263;1257;70771;-61
2023/06/15 07:01:10;;;;;;;9.70;5.50;;;;;;;24.20;49.48;100371.41;105136;1257;62422;-60
2023/06/15 07:03:38;;;;;;;8.70;5.30;;;;;;;24.28;49.52;100366.05;105582;1254;60495;-68
2023/06/15 07:06:07;;;;;;;8.10;4.80;;;;;;;24.36;49.27;100366.59;105408;1258;60376;-60
2023/06/15 07:08:34;;;;;;;11.50;4.60;;;;;;;24.41;48.60;100366.65;105402;1254;63623;-61
2023/06/15 07:11:02;;;;;;;11.60;5.20;;;;;;;24.40;48.53;100365.45;105306;1253;61502;-58
2023/06/15 07:13:29;;;;;;;9.60;5.60;;;;;;;24.37;49.19;100368.90;105287;1254;64286;-60
2023/06/15 07:15:57;;;;;;;10.20;5.70;;;;;;;24.35;49.43;100370.38;105403;1254;60394;-64
2023/06/15 07:18:25;;;;;;;9.90;5.10;;;;;;;24.31;49.45;100368.52;105543;1254;60552;-64
2023/06/15 07:20:53;;;;;;;7.70;5.10;;;;;;;24.28;49.38;100371.09;105445;1254;63670;-63
2023/06/15 07:23:22;;;;;;;7.40;4.80;;;;;;;24.27;49.50;100372.98;105415;1254;61539;-63
2023/06/15 07:25:50;;;;;;;10.70;4.80;;;;;;;24.30;49.85;100368.27;105622;1254;63717;-57
2023/06/15 07:28:18;;;;;;;9.70;4.70;;;;;;;24.35;48.74;100365.15;105633;1254;60521;-58
2023/06/15 07:30:46;;;;;;;10.10;5.00;;;;;;;24.42;48.10;100365.57;105733;1254;60563;-56
2023/06/15 07:33:13;;;;;;;8.20;4.60;;;;;;;24.51;48.56;100366.85;105439;1257;64858;-56
2023/06/15 07:35:41;;;;;;;9.50;4.20;;;;;;;24.59;48.35;100368.36;105443;1254;61925;-55
2023/06/15 07:38:08;;;;;;;10.10;4.40;;;;;;;24.65;47.61;100368.24;105555;1256;63736;-57
2023/06/15 07:40:36;;;;;;;8.60;4.10;;;;;;;24.67;46.82;100366.54;105546;1254;60641;-55
2023/06/15 07:43:03;;;;;;;6.80;3.60;;;;;;;24.69;46.76;100367.44;105367;1259;60446;-57
2023/06/15 07:45:32;;;;;;;8.20;3.80;;;;;;;24.71;46.88;100368.05;105406;1254;65433;-61
2023/06/15 07:47:59;;;;;;;9.20;3.90;;;;;;;24.73;46.28;100367.30;105423;1254;61354;-60
2023/06/15 07:50:28;;;;;;;7.20;4.00;;;;;;;24.77;46.32;100363.95;105606;1254;65949;-64
2023/06/15 07:52:56;;;;;;;5.60;3.50;;;;;;;24.80;45.82;100362.44;105436;1254;60492;-61
2023/06/15 07:55:23;;;;;;;6.60;3.50;;;;;;;24.83;45.90;100362.98;105394;1253;60553;-58
2023/06/15 07:57:51;;;;;;;5.90;4.00;;;;;;;24.87;45.40;100358.55;105396;1254;63981;-57
2023/06/15 08:00:19;;;;;;;7.90;3.90;;;;;;;24.91;45.33;100362.66;105373;1254;61727;-57
2023/06/15 08:02:48;;;;;;;9.70;4.80;;;;;;;24.96;45.25;100364.61;105787;1254;63651;-57
2023/06/15 08:05:16;;;;;;;7.70;3.80;;;;;;;25.03;45.00;100363.85;105590;1254;60465;-60
2023/06/15 08:07:43;;;;;;;7.40;4.00;;;;;;;25.11;45.41;100367.93;105605;1254;60632;-57
2023/06/15 08:10:11;;;;;;;10.10;4.50;;;;;;;25.20;45.90;100366.36;105522;1254;63617;-58
2023/06/15 08:12:39;;;;;;;10.90;3.90;;;;;;;25.32;45.37;100365.24;105487;1259;60555;-60
2023/06/15 08:15:08;;;;;;;5.90;3.60;;;;;;;25.43;44.68;100367.10;105597;1257;63240;-60
2023/06/15 08:17:36;;;;;;;10.40;3.80;;;;;;;25.52;44.72;100367.31;105516;1254;60454;-58
2023/06/15 08:20:09;;;;;;;7.30;3.90;;;;;;;25.63;44.15;100365.14;105593;1254;60444;-58
2023/06/15 08:22:37;;;;;;;10.00;3.30;;;;;;;25.77;44.01;100367.45;105614;1254;63829;-59
2023/06/15 08:25:05;;;;;;;10.10;3.90;;;;;;;25.94;43.95;100364.45;105575;1254;61390;-59
2023/06/15 08:27:33;;;;;;;7.60;4.10;;;;;;;26.07;43.31;100363.27;106029;1254;62450;-59
2023/06/15 08:30:01;;;;;;;10.30;3.70;;;;;;;26.16;42.85;100363.38;105654;1254;60453;-59
2023/06/15 08:32:29;;;;;;;7.20;3.70;;;;;;;26.21;42.86;100362.16;105684;1253;60504;-59
2023/06/15 08:34:57;;;;;;;6.80;3.30;;;;;;;26.22;43.00;100368.49;109184;1253;64888;-60
2023/06/15 08:37:24;;;;;;;13.80;3.70;;;;;;;26.25;42.81;100369.61;109264;1257;60767;-60
2023/06/15 08:39:52;;;;;;;7.30;3.00;;;;;;;26.34;43.26;100368.30;109300;1252;64140;-62
2023/06/15 08:42:20;;;;;;;9.70;3.60;;;;;;;26.41;42.77;100371.77;109283;1253;58395;-59
2023/06/15 08:44:47;;;;;;;8.30;3.70;;;;;;;26.43;42.40;100370.65;107378;1254;60950;-59
2023/06/15 08:47:15;;;;;;;8.30;3.90;;;;;;;26.45;42.36;100368.10;106769;1254;65675;-60
2023/06/15 08:49:43;;;;;;;8.00;3.50;;;;;;;26.46;41.97;100364.15;105398;1258;69709;-58
2023/06/15 08:52:12;;;;;;;8.40;3.50;;;;;;;26.48;42.25;100367.11;105615;1254;63840;-61
2023/06/15 08:54:42;;;;;;;8.90;3.70;;;;;;;26.54;42.00;100363.88;105637;1251;60473;-59
2023/06/15 08:57:09;;;;;;;9.70;3.80;;;;;;;26.62;41.95;100367.18;105468;1254;60553;-58
2023/06/15 08:59:37;;;;;;;9.00;3.70;;;;;;;26.68;41.69;100367.29;105554;1258;64862;-63
2023/06/15 09:02:07;;;;;;;6.80;3.50;;;;;;;26.70;41.08;100369.87;105451;1252;60569;-58
2023/06/15 09:04:35;;;;;;;7.90;4.40;;;;;;;26.70;41.21;100372.94;105559;1254;63731;-59
2023/06/15 09:07:03;;;;;;;9.00;3.30;;;;;;;26.72;41.29;100375.81;105629;1254;60556;-60
2023/06/15 09:09:30;;;;;;;8.70;3.10;;;;;;;26.75;41.38;100375.92;105584;1251;60469;-59
2023/06/15 09:11:58;;;;;;;10.20;3.50;;;;;;;26.79;41.20;100375.30;105711;1256;64890;-59
2023/06/15 09:14:25;;;;;;;7.80;3.60;;;;;;;26.83;41.19;100378.21;105495;1251;61379;-63
2023/06/15 09:16:53;;;;;;;8.40;4.40;;;;;;;26.84;41.41;100376.13;105364;1254;64978;-60
2023/06/15 09:19:21;;;;;;;9.20;3.70;;;;;;;26.89;41.57;100378.84;105162;1254;61161;-58
2023/06/15 09:21:52;;;;;;;11.20;3.90;;;;;;;26.94;41.60;100374.20;105104;1254;60357;-59
2023/06/15 09:24:22;;;;;;;7.20;3.90;;;;;;;26.97;41.32;100372.08;109283;1254;76016;-60
2023/06/15 09:26:50;;;;;;;7.90;3.70;;;;;;;26.98;40.90;100371.48;109249;1252;63690;-59
2023/06/15 09:29:17;;;;;;;7.90;3.50;;;;;;;26.98;41.26;100373.02;109248;1254;63846;-59
2023/06/15 09:31:45;;;;;;;7.20;3.70;;;;;;;27.03;41.32;100373.20;109137;1254;58251;-59
2023/06/15 09:34:13;;;;;;;10.40;3.70;;;;;;;27.10;41.26;100366.52;105365;1253;60450;-58
2023/06/15 09:36:41;;;;;;;7.30;3.40;;;;;;;27.18;41.45;100365.80;109325;1254;65402;-58
2023/06/15 09:39:09;;;;;;;10.70;3.50;;;;;;;27.21;41.54;100366.04;107247;1254;60501;-59
2023/06/15 09:41:50;;;;;;;7.80;3.40;;;;;;;27.27;41.44;100366.61;105925;1260;63732;-62
2023/06/15 09:44:19;;;;;;;6.10;3.50;;;;;;;27.30;41.63;100366.75;105662;1256;60556;-61
2023/06/15 09:46:53;;;;;;;10.60;4.10;;;;;;;27.32;41.85;100364.64;105638;1256;61198;-60
2023/06/15 09:49:26;;;;;;;8.10;3.70;;;;;;;27.34;42.15;100361.44;105768;1254;65013;-59
2023/06/15 09:51:54;;;;;;;5.90;3.10;;;;;;;27.37;41.91;100365.72;105793;1256;61387;-64
2023/06/15 09:54:23;;;;;;;9.70;3.80;;;;;;;27.37;40.83;100368.96;105439;1255;63780;-61
2023/06/15 09:56:52;;;;;;;7.20;3.30;;;;;;;27.30;40.46;100373.39;109249;1254;58255;-59
2023/06/15 09:59:20;;;;;;;6.80;3.00;;;;;;;27.22;40.55;100373.88;106089;1253;60767;-60
2023/06/15 10:01:49;;;;;;;7.90;3.30;;;;;;;27.15;40.44;100375.70;106607;1254;65487;-59
2023/06/15 10:04:19;;;;;;;7.20;3.00;;;;;;;27.04;40.32;100381.98;105593;1254;61491;-59
2023/06/15 10:06:51;;;;;;;10.80;3.70;;;;;;;26.95;40.76;100383.79;105445;1254;62427;-59
2023/06/15 10:09:23;;;;;;;6.80;3.40;;;;;;;26.88;40.70;100386.00;105455;1259;60456;-61
2023/06/15 10:11:51;;;;;;;9.30;3.80;;;;;;;26.84;40.78;100384.65;105407;1254;60555;-58
2023/06/15 10:14:23;;;;;;;9.50;3.80;;;;;;;26.81;41.08;100384.41;105440;1254;65042;-59
2023/06/15 10:16:57;;;;;;;8.50;3.50;;;;;;;26.79;41.44;100386.27;105535;1254;61346;-60
2023/06/15 10:19:25;;;;;;;8.90;3.80;;;;;;;26.81;41.84;100389.21;105618;1254;63738;-59
2023/06/15 10:21:52;;;;;;;6.90;3.10;;;;;;;26.85;41.63;100386.67;105424;1253;62885;-59
2023/06/15 10:24:21;;;;;;;6.10;3.00;;;;;;;26.87;40.90;100384.79;105376;1254;60494;-60
2023/06/15 10:26:49;;;;;;;8.40;3.50;;;;;;;26.88;40.79;100384.39;105463;1255;63794;-62
2023/06/15 10:29:26;;;;;;;8.80;3.50;;;;;;;26.88;40.68;100382.92;105496;1254;61360;-59
2023/06/15 10:32:07;;;;;;;6.50;3.50;;;;;;;26.92;40.87;100382.36;105317;1259;63671;-58
2023/06/15 10:34:38;;;;;;;8.10;3.80;;;;;;;26.98;40.99;100384.36;105394;1259;60530;-61
2023/06/15 10:37:31;;;;;;;7.00;3.30;;;;;;;27.03;41.48;100380.86;105489;1259;60537;-60
2023/06/15 10:40:01;;;;;;;7.20;3.40;;;;;;;27.14;41.29;100376.88;105027;1259;64919;-60
2023/06/15 10:42:28;;;;;;;8.20;3.60;;;;;;;27.26;41.02;100374.98;105244;1259;61616;-60
2023/06/15 10:44:58;;;;;;;8.70;3.30;;;;;;;27.33;40.59;100375.19;105286;1254;63716;-59
2023/06/15 10:47:25;;;;;;;7.50;3.30;;;;;;;27.36;40.16;100371.64;105839;1258;60597;-59
2023/06/15 10:49:53;;;;;;;10.50;4.50;;;;;;;27.38;39.94;100367.70;105618;1253;60991;-58
2023/06/15 10:52:21;;;;;;;9.90;3.20;;;;;;;27.41;39.81;100367.27;105415;1254;64955;-58
2023/06/15 10:54:48;;;;;;;6.40;3.10;;;;;;;27.47;39.83;100369.45;105241;1259;61644;-63
2023/06/15 10:57:19;;;;;;;9.10;3.30;;;;;;;27.51;39.93;100368.00;105353;1259;63725;-58
2023/06/15 10:59:49;;;;;;;7.00;3.90;;;;;;;27.56;40.30;100365.55;105434;1254;60616;-58
2023/06/15 11:02:26;;;;;;;8.10;3.70;;;;;;;27.64;40.56;100366.33;105891;1258;60536;-58
2023/06/15 11:05:05;;;;;;;11.30;3.80;;;;;;;27.74;39.91;100365.52;105414;1259;64868;-59
2023/06/15 11:07:35;;;;;;;8.00;3.40;;;;;;;27.84;39.60;100368.66;105424;1254;61460;-58
2023/06/15 11:10:23;;;;;;;7.70;3.50;;;;;;;27.89;39.54;100370.81;105632;1254;64267;-60
2023/06/15 11:13:01;;;;;;;8.50;3.60;;;;;;;27.90;39.37;100371.44;105282;1254;60495;-61
2023/06/15 11:15:35;;;;;;;10.30;3.50;;;;;;;27.87;38.91;100370.67;105442;1254;60540;-58
2023/06/15 11:18:04;;;;;;;6.70;3.40;;;;;;;27.87;39.41;100373.16;105356;1254;64902;-61
2023/06/15 11:20:39;;;;;;;9.20;4.00;;;;;;;27.89;38.54;100369.97;105442;1259;60446;-60
2023/06/15 11:23:16;;;;;;;8.40;3.80;;;;;;;27.88;38.12;100365.40;105420;1255;62662;-65